URML 160630Z 13005MPS 9999 NSC 31/18 Q1010 R14/01//70 NOSIG RMK QFE757/1010
QNH:(hPa/inHg/mmHg)1010 / 29.83 / 758
QFE:(hPa/inHg/mmHg)1009 / 29.81 / 757
Temperature31
Dew Point18
Visibility> 10000
Weather
Cloud Cover
Transition Altitude10000 ft.
Transition LevelFL120
SQUAWK